createdAt,value
2022-10-23T00:02:08.942Z,12.60
2022-10-23T00:04:37.903Z,10.43
2022-10-23T00:07:04.839Z,10.00
2022-10-23T00:09:33.751Z,8.40
2022-10-23T00:12:03.903Z,15.30
2022-10-23T00:14:31.814Z,12.17
2022-10-23T00:16:58.804Z,10.80
2022-10-23T00:19:28.745Z,15.67
2022-10-23T00:21:55.713Z,14.47
2022-10-23T00:24:23.643Z,14.00
2022-10-23T00:26:52.639Z,14.97
2022-10-23T00:29:22.627Z,10.90
2022-10-23T00:31:51.620Z,12.63
2022-10-23T00:34:19.507Z,14.40
2022-10-23T00:36:47.405Z,14.23
2022-10-23T00:39:14.414Z,12.97
2022-10-23T00:41:44.442Z,11.27
2022-10-23T00:44:33.617Z,9.27
2022-10-23T00:47:02.557Z,11.27
2022-10-23T00:49:32.533Z,13.30
2022-10-23T00:52:06.967Z,9.63
2022-10-23T00:54:37.848Z,14.17
2022-10-23T00:57:08.156Z,11.03
2022-10-23T00:59:38.357Z,10.83
2022-10-23T01:02:09.128Z,10.07
2022-10-23T01:04:37.406Z,8.03
2022-10-23T01:07:07.337Z,11.10
2022-10-23T01:09:46.331Z,10.73
2022-10-23T01:12:28.899Z,7.87
2022-10-23T01:15:21.957Z,10.60
2022-10-23T01:17:56.088Z,10.60
2022-10-23T01:20:45.196Z,9.93
2022-10-23T01:23:29.756Z,8.47
2022-10-23T01:26:35.550Z,12.30
2022-10-23T01:29:24.750Z,9.93
2022-10-23T01:32:04.340Z,11.13
2022-10-23T01:35:00.476Z,10.07
2022-10-23T01:37:44.198Z,10.17
2022-10-23T01:40:47.469Z,11.53
2022-10-23T01:43:24.303Z,11.67
2022-10-23T01:45:59.484Z,7.47
2022-10-23T01:48:33.183Z,8.77
2022-10-23T01:51:04.580Z,11.30
2022-10-23T01:53:41.449Z,11.47
2022-10-23T01:56:13.029Z,10.20
2022-10-23T01:58:45.572Z,7.07
2022-10-23T02:01:14.818Z,10.13
2022-10-23T02:03:43.761Z,7.87
2022-10-23T02:06:14.000Z,9.97
2022-10-23T02:08:43.989Z,8.03
2022-10-23T02:11:18.855Z,7.07
2022-10-23T02:13:55.800Z,11.50
2022-10-23T02:16:43.039Z,9.60
2022-10-23T02:19:40.663Z,15.20
2022-10-23T02:22:28.023Z,11.00
2022-10-23T02:25:21.780Z,10.20
2022-10-23T02:27:56.532Z,10.27
2022-10-23T02:30:23.469Z,13.00
2022-10-23T02:32:53.896Z,7.60
2022-10-23T02:35:23.134Z,6.73
2022-10-23T02:38:01.263Z,10.37
2022-10-23T02:40:40.432Z,10.33
2022-10-23T02:43:25.544Z,7.30
2022-10-23T02:46:00.193Z,6.77
2022-10-23T02:48:38.845Z,10.03
2022-10-23T02:51:25.524Z,9.60
2022-10-23T02:54:12.149Z,9.27
2022-10-23T02:56:53.020Z,8.73
2022-10-23T02:59:37.494Z,9.23
2022-10-23T03:02:15.816Z,8.67
2022-10-23T03:04:44.197Z,12.13
2022-10-23T03:07:13.109Z,7.43
2022-10-23T03:09:40.532Z,8.00
2022-10-23T03:12:10.427Z,6.47
2022-10-23T03:14:39.410Z,7.23
2022-10-23T03:17:07.652Z,7.37
2022-10-23T03:19:37.673Z,8.37
2022-10-23T03:22:10.800Z,8.60
2022-10-23T03:24:40.748Z,7.53
2022-10-23T03:27:11.768Z,6.90
2022-10-23T03:29:39.731Z,7.80
2022-10-23T03:32:09.881Z,7.10
2022-10-23T03:34:37.860Z,8.17
2022-10-23T03:37:04.903Z,7.40
2022-10-23T03:39:31.887Z,7.10
2022-10-23T03:41:58.881Z,10.27
2022-10-23T03:44:25.837Z,10.03
2022-10-23T03:46:56.380Z,7.63
2022-10-23T03:49:23.421Z,6.87
2022-10-23T03:51:53.501Z,8.57
2022-10-23T03:54:24.815Z,6.27
2022-10-23T03:56:55.079Z,9.47
2022-10-23T03:59:25.520Z,6.77
2022-10-23T04:01:52.553Z,7.47
2022-10-23T04:04:19.681Z,8.53
2022-10-23T04:06:59.886Z,5.93
2022-10-23T04:09:26.884Z,7.93
2022-10-23T04:11:56.223Z,8.67
2022-10-23T04:14:26.520Z,6.13
2022-10-23T04:16:59.146Z,5.23
2022-10-23T04:19:29.312Z,7.13
2022-10-23T04:21:58.715Z,7.47
2022-10-23T04:24:28.937Z,7.80
2022-10-23T04:26:56.927Z,6.03
2022-10-23T04:29:27.033Z,8.07
2022-10-23T04:31:57.039Z,5.90
2022-10-23T04:34:25.016Z,6.67
2022-10-23T04:36:51.931Z,6.40
2022-10-23T04:39:19.132Z,7.60
2022-10-23T04:41:46.104Z,6.70
2022-10-23T04:44:16.485Z,10.37
2022-10-23T04:46:44.430Z,6.23
2022-10-23T04:49:13.342Z,8.47
2022-10-23T04:51:43.259Z,5.13
2022-10-23T04:54:11.247Z,4.70
2022-10-23T04:56:41.222Z,5.27
2022-10-23T04:59:09.763Z,5.73
2022-10-23T05:01:37.859Z,5.50
2022-10-23T05:04:05.105Z,5.23
2022-10-23T05:06:35.129Z,6.70
2022-10-23T05:09:05.197Z,6.67
2022-10-23T05:11:34.204Z,5.53
2022-10-23T05:14:07.091Z,8.33
2022-10-23T05:16:52.938Z,6.00
2022-10-23T05:19:27.921Z,5.03
2022-10-23T05:21:56.834Z,8.13
2022-10-23T05:24:26.944Z,7.00
2022-10-23T05:26:54.168Z,9.00
2022-10-23T05:29:23.441Z,6.60
2022-10-23T05:31:57.027Z,8.23
2022-10-23T05:34:30.449Z,5.20
2022-10-23T05:37:01.040Z,5.93
2022-10-23T05:39:31.001Z,7.87
2022-10-23T05:42:01.004Z,7.47
2022-10-23T05:44:27.845Z,5.80
2022-10-23T05:46:57.816Z,6.47
2022-10-23T05:49:26.057Z,10.57
2022-10-23T05:52:01.277Z,4.23
2022-10-23T05:54:31.363Z,6.00
2022-10-23T05:56:58.359Z,11.17
2022-10-23T05:59:25.255Z,4.33
2022-10-23T06:01:53.398Z,5.30
2022-10-23T06:04:20.325Z,5.57
2022-10-23T06:06:48.250Z,4.33
2022-10-23T06:09:18.319Z,7.90
2022-10-23T06:11:48.317Z,8.10
2022-10-23T06:14:18.519Z,7.37
2022-10-23T06:16:47.526Z,5.07
2022-10-23T06:19:17.777Z,5.87
2022-10-23T06:21:50.744Z,6.20
2022-10-23T06:24:19.739Z,6.67
2022-10-23T06:26:48.860Z,8.60
2022-10-23T06:29:19.464Z,5.83
2022-10-23T06:31:48.588Z,7.17
2022-10-23T06:34:18.508Z,8.73
2022-10-23T06:36:48.590Z,7.93
2022-10-23T06:39:16.563Z,11.00
2022-10-23T06:41:46.596Z,6.43
2022-10-23T06:44:14.573Z,12.57
2022-10-23T06:46:42.662Z,6.97
2022-10-23T06:49:16.669Z,8.27
2022-10-23T06:51:49.660Z,6.90
2022-10-23T06:54:19.652Z,7.97
2022-10-23T06:56:49.561Z,7.93
2022-10-23T06:59:19.799Z,6.97
2022-10-23T07:01:48.930Z,7.30
2022-10-23T07:04:16.024Z,8.83
2022-10-23T07:06:45.997Z,8.20
2022-10-23T07:09:16.054Z,8.73
2022-10-23T07:11:43.927Z,9.37
2022-10-23T07:14:13.971Z,6.37
2022-10-23T07:16:41.016Z,6.57
2022-10-23T07:19:10.913Z,6.73
2022-10-23T07:21:37.782Z,9.27
2022-10-23T07:24:05.961Z,7.47
2022-10-23T07:26:33.008Z,9.20
2022-10-23T07:29:03.038Z,6.40
2022-10-23T07:31:32.967Z,5.53
2022-10-23T07:34:02.824Z,5.00
2022-10-23T07:36:33.159Z,7.00
2022-10-23T07:39:01.084Z,5.13
2022-10-23T07:41:31.154Z,4.37
2022-10-23T07:44:01.180Z,5.53
2022-10-23T07:46:33.320Z,6.43
2022-10-23T07:49:03.525Z,8.17
2022-10-23T07:51:32.439Z,5.93
2022-10-23T07:54:02.397Z,8.37
2022-10-23T07:56:30.474Z,6.20
2022-10-23T07:59:06.775Z,6.00
2022-10-23T08:01:43.558Z,4.60
2022-10-23T08:04:13.831Z,6.53
2022-10-23T08:06:41.798Z,4.37
2022-10-23T08:09:08.684Z,4.80
2022-10-23T08:11:37.608Z,3.17
2022-10-23T08:14:08.310Z,4.93
2022-10-23T08:16:38.445Z,3.57
2022-10-23T08:19:08.667Z,4.53
2022-10-23T08:21:38.128Z,2.90
2022-10-23T08:24:13.280Z,5.10
2022-10-23T08:26:42.263Z,4.57
2022-10-23T08:29:10.281Z,3.70
2022-10-23T08:31:40.249Z,5.47
2022-10-23T08:34:09.282Z,5.17
2022-10-23T08:36:39.676Z,3.93
2022-10-23T08:39:07.830Z,5.70
2022-10-23T08:41:37.780Z,4.30
2022-10-23T08:44:20.114Z,6.93
2022-10-23T08:47:02.176Z,4.23
2022-10-23T08:49:35.278Z,7.33
2022-10-23T08:52:14.413Z,6.60
2022-10-23T08:55:00.557Z,5.30
2022-10-23T08:57:37.779Z,4.00
2022-10-23T09:00:16.082Z,3.83
2022-10-23T09:02:51.550Z,7.87
2022-10-23T09:05:18.462Z,4.60
2022-10-23T09:07:57.549Z,5.83
2022-10-23T09:10:54.531Z,3.50
2022-10-23T09:13:53.396Z,4.67
2022-10-23T09:16:47.528Z,5.37
2022-10-23T09:19:22.469Z,5.67
2022-10-23T09:21:53.612Z,5.93
2022-10-23T09:24:26.380Z,4.87
2022-10-23T09:26:54.931Z,4.33
2022-10-23T09:29:36.156Z,5.37
2022-10-23T09:32:07.335Z,5.63
2022-10-23T09:34:35.443Z,5.93
2022-10-23T09:37:28.856Z,5.27
2022-10-23T09:40:18.029Z,5.07
2022-10-23T09:43:06.248Z,4.90
2022-10-23T09:45:35.789Z,5.40
2022-10-23T09:48:19.259Z,4.30
2022-10-23T09:50:57.840Z,3.93
2022-10-23T09:53:27.548Z,7.37
2022-10-23T09:55:58.847Z,6.77
2022-10-23T09:58:38.680Z,4.60
2022-10-23T10:01:06.261Z,4.33
2022-10-23T10:03:33.741Z,4.17
2022-10-23T10:06:03.947Z,6.47
2022-10-23T10:08:46.796Z,7.23
2022-10-23T10:11:20.804Z,8.70
2022-10-23T10:14:04.718Z,7.03
2022-10-23T10:16:50.297Z,5.77
2022-10-23T10:19:52.738Z,4.33
2022-10-23T10:22:39.621Z,5.23
2022-10-23T10:25:16.530Z,6.50
2022-10-23T10:28:18.207Z,4.60
2022-10-23T10:31:11.744Z,5.80
2022-10-23T10:34:03.681Z,5.50
2022-10-23T10:36:56.725Z,4.97
2022-10-23T10:39:53.555Z,8.43
2022-10-23T10:42:24.408Z,5.13
2022-10-23T10:45:12.584Z,6.27
2022-10-23T10:47:54.886Z,3.87
2022-10-23T10:50:52.259Z,4.53
2022-10-23T10:53:51.270Z,5.03
2022-10-23T10:56:21.990Z,5.80
2022-10-23T10:59:24.789Z,3.77
2022-10-23T11:02:22.009Z,5.70
2022-10-23T11:05:12.340Z,7.43
2022-10-23T11:07:52.879Z,4.80
2022-10-23T11:10:23.295Z,4.77
2022-10-23T11:12:52.536Z,5.47
2022-10-23T11:15:31.273Z,5.40
2022-10-23T11:18:03.908Z,5.83
2022-10-23T11:20:53.712Z,5.07
2022-10-23T11:23:44.280Z,6.43
2022-10-23T11:27:05.428Z,6.30
2022-10-23T11:29:51.840Z,4.20
2022-10-23T11:32:27.897Z,4.03
2022-10-23T11:34:57.908Z,8.37
2022-10-23T11:37:28.141Z,4.00
2022-10-23T11:40:10.356Z,5.13
2022-10-23T11:42:41.691Z,3.70
2022-10-23T11:45:27.740Z,4.63
2022-10-23T11:48:21.043Z,5.87
2022-10-23T11:50:54.981Z,3.80
2022-10-23T11:53:40.797Z,3.63
2022-10-23T11:56:14.622Z,6.80
2022-10-23T11:58:51.203Z,4.77
2022-10-23T12:01:45.736Z,4.63
2022-10-23T12:04:16.212Z,5.30
2022-10-23T12:06:55.570Z,2.97
2022-10-23T12:09:39.906Z,2.80
2022-10-23T12:12:09.999Z,3.10
2022-10-23T12:14:46.816Z,4.80
2022-10-23T12:17:24.908Z,4.67
2022-10-23T12:20:01.632Z,3.93
2022-10-23T12:23:13.572Z,4.20
2022-10-23T12:26:09.337Z,7.27
2022-10-23T12:28:57.090Z,3.83
2022-10-23T12:31:48.955Z,3.03
2022-10-23T12:34:44.699Z,5.13
2022-10-23T12:37:55.218Z,6.70
2022-10-23T12:40:30.212Z,4.47
2022-10-23T12:43:01.344Z,4.73
2022-10-23T12:45:46.809Z,5.47
2022-10-23T12:48:22.036Z,6.67
2022-10-23T12:50:52.911Z,5.67
2022-10-23T12:53:22.926Z,6.73
2022-10-23T12:56:05.824Z,5.80
2022-10-23T12:58:35.334Z,3.33
2022-10-23T13:01:05.267Z,5.53
2022-10-23T13:03:34.566Z,2.90
2022-10-23T13:06:03.247Z,3.77
2022-10-23T13:08:36.937Z,2.87
2022-10-23T13:11:05.532Z,4.77
2022-10-23T13:13:32.781Z,3.93
2022-10-23T13:16:15.018Z,3.87
2022-10-23T13:18:45.181Z,5.50
2022-10-23T13:21:23.441Z,4.00
2022-10-23T13:23:51.795Z,4.07
2022-10-23T13:26:42.977Z,4.17
2022-10-23T13:31:52.972Z,4.20
2022-10-23T13:34:30.792Z,3.50
2022-10-23T13:37:25.899Z,3.97
2022-10-23T13:40:10.312Z,4.03
2022-10-23T13:42:39.396Z,4.13
2022-10-23T13:45:16.355Z,5.07
2022-10-23T13:47:43.693Z,3.63
2022-10-23T13:50:12.879Z,5.20
2022-10-23T13:52:39.743Z,5.23
2022-10-23T13:55:24.556Z,6.40
2022-10-23T13:57:51.999Z,5.03
2022-10-23T14:00:21.096Z,5.40
2022-10-23T14:02:51.197Z,8.03
2022-10-23T14:05:21.271Z,4.83
2022-10-23T14:07:49.303Z,7.27
2022-10-23T14:10:19.261Z,5.93
2022-10-23T14:12:55.380Z,3.67
2022-10-23T14:15:22.984Z,3.50
2022-10-23T14:17:58.933Z,5.07
2022-10-23T14:20:29.447Z,4.63
2022-10-23T14:22:59.400Z,4.47
2022-10-23T14:25:29.475Z,9.07
2022-10-23T14:27:59.474Z,3.87
2022-10-23T14:30:29.507Z,2.40
2022-10-23T14:32:58.439Z,3.77
2022-10-23T14:35:28.496Z,4.80
2022-10-23T14:37:58.128Z,4.60
2022-10-23T14:40:25.504Z,3.00
2022-10-23T14:42:53.569Z,3.70
2022-10-23T14:45:22.528Z,3.37
2022-10-23T14:47:52.579Z,4.20
2022-10-23T14:50:19.724Z,6.13
2022-10-23T14:52:49.724Z,3.33
2022-10-23T14:55:16.722Z,4.97
2022-10-23T14:57:46.920Z,5.07
2022-10-23T15:00:19.926Z,3.50
2022-10-23T15:02:47.896Z,4.33
2022-10-23T15:05:18.336Z,4.50
2022-10-23T15:07:48.523Z,5.97
2022-10-23T15:10:18.676Z,3.00
2022-10-23T15:12:46.923Z,3.60
2022-10-23T15:15:17.040Z,4.47
2022-10-23T15:17:46.996Z,4.60
2022-10-23T15:20:13.931Z,3.33
2022-10-23T15:22:41.137Z,4.03
2022-10-23T15:25:13.120Z,6.17
2022-10-23T15:27:45.916Z,6.33
2022-10-23T15:30:13.081Z,2.77
2022-10-23T15:32:41.080Z,3.20
2022-10-23T15:35:14.093Z,5.77
2022-10-23T15:37:44.329Z,3.80
2022-10-23T15:40:13.569Z,6.70
2022-10-23T15:42:40.780Z,3.77
2022-10-23T15:45:08.382Z,3.97
2022-10-23T15:47:41.541Z,6.63
2022-10-23T15:50:10.024Z,4.50
2022-10-23T15:52:39.103Z,5.03
2022-10-23T15:55:12.524Z,4.50
2022-10-23T15:57:42.620Z,4.57
2022-10-23T16:00:10.889Z,5.30
2022-10-23T16:02:46.266Z,3.53
2022-10-23T16:05:21.556Z,5.13
2022-10-23T16:07:51.591Z,5.47
2022-10-23T16:10:25.650Z,4.67
2022-10-23T16:12:55.734Z,5.67
2022-10-23T16:15:22.674Z,4.40
2022-10-23T16:17:50.778Z,7.00
2022-10-23T16:20:21.183Z,4.73
2022-10-23T16:22:51.180Z,4.90
2022-10-23T16:25:20.205Z,6.60
2022-10-23T16:27:48.357Z,2.73
2022-10-23T16:30:16.404Z,4.33
2022-10-23T16:32:46.344Z,8.10
2022-10-23T16:35:16.546Z,4.97
2022-10-23T16:37:44.668Z,4.53
2022-10-23T16:40:17.792Z,6.30
2022-10-23T16:42:46.243Z,3.87
2022-10-23T16:45:16.469Z,4.73
2022-10-23T16:47:44.533Z,5.80
2022-10-23T16:50:15.635Z,5.37
2022-10-23T16:52:46.153Z,3.67
2022-10-23T16:55:16.854Z,3.70
2022-10-23T16:57:46.876Z,7.73
2022-10-23T17:00:22.027Z,5.63
2022-10-23T17:02:52.027Z,5.47
2022-10-23T17:05:22.891Z,7.50
2022-10-23T17:07:50.839Z,5.03
2022-10-23T17:10:20.911Z,5.53
2022-10-23T17:12:50.044Z,4.00
2022-10-23T17:15:19.859Z,6.93
2022-10-23T17:17:48.901Z,7.43
2022-10-23T17:20:15.776Z,5.27
2022-10-23T17:22:48.893Z,5.73
2022-10-23T17:25:21.857Z,8.57
2022-10-23T17:27:51.891Z,5.67
2022-10-23T17:30:21.902Z,6.17
2022-10-23T17:32:48.889Z,5.63
2022-10-23T17:35:17.860Z,5.90
2022-10-23T17:37:50.233Z,9.40
2022-10-23T17:40:19.454Z,9.80
2022-10-23T17:42:50.487Z,11.33
2022-10-23T17:45:17.544Z,4.77
2022-10-23T17:47:44.773Z,5.07
2022-10-23T17:50:13.944Z,10.83
2022-10-23T17:52:42.501Z,6.07
2022-10-23T17:55:10.220Z,7.87
2022-10-23T17:57:37.208Z,7.33
2022-10-23T18:00:05.644Z,3.67
2022-10-23T18:02:32.647Z,3.97
2022-10-23T18:04:59.818Z,1.87
2022-10-23T18:07:26.791Z,2.97
2022-10-23T18:09:53.820Z,2.43
2022-10-23T18:12:20.930Z,2.83
2022-10-23T18:14:48.880Z,2.67
2022-10-23T18:17:16.826Z,1.40
2022-10-23T18:19:49.718Z,1.40
2022-10-23T18:24:48.960Z,2.30
2022-10-23T18:27:17.007Z,4.00
2022-10-23T18:29:47.024Z,1.10
2022-10-23T18:32:17.052Z,2.03
2022-10-23T18:34:46.099Z,1.10
2022-10-23T18:37:15.120Z,1.83
2022-10-23T18:39:42.076Z,2.10
2022-10-23T18:42:12.346Z,1.43
2022-10-23T18:44:40.460Z,1.43
2022-10-23T18:47:07.364Z,2.67
2022-10-23T18:49:37.396Z,1.83
2022-10-23T18:52:06.393Z,3.00
2022-10-23T18:54:34.320Z,3.77
2022-10-23T18:57:01.403Z,2.60
2022-10-23T18:59:30.348Z,1.83
2022-10-23T19:02:00.409Z,3.03
2022-10-23T19:04:31.741Z,3.67
2022-10-23T19:07:04.459Z,3.00
2022-10-23T19:09:34.651Z,3.77
2022-10-23T19:12:04.565Z,1.67
2022-10-23T19:14:33.547Z,3.00
2022-10-23T19:17:11.270Z,3.47
2022-10-23T19:19:43.760Z,2.57
2022-10-23T19:22:13.934Z,2.43
2022-10-23T19:24:54.976Z,3.77
2022-10-23T19:27:25.728Z,3.07
2022-10-23T19:29:55.698Z,2.73
2022-10-23T19:32:24.727Z,3.03
2022-10-23T19:34:51.846Z,2.57
2022-10-23T19:37:23.595Z,2.20
2022-10-23T19:39:51.755Z,3.40
2022-10-23T19:42:21.885Z,3.80
2022-10-23T19:44:49.841Z,7.10
2022-10-23T19:47:20.008Z,4.60
2022-10-23T19:49:54.019Z,4.00
2022-10-23T19:52:24.288Z,3.90
2022-10-23T19:54:54.179Z,3.80
2022-10-23T19:57:24.236Z,5.63
2022-10-23T19:59:52.422Z,3.07
2022-10-23T20:02:22.719Z,2.70
2022-10-23T20:04:51.868Z,4.27
2022-10-23T20:07:22.322Z,3.60
2022-10-23T20:09:52.286Z,4.23
2022-10-23T20:12:22.327Z,3.40
2022-10-23T20:14:50.950Z,4.60
2022-10-23T20:17:22.382Z,5.40
2022-10-23T20:19:50.026Z,5.53
2022-10-23T20:22:20.439Z,3.60
2022-10-23T20:24:50.859Z,3.63
2022-10-23T20:27:20.903Z,3.00
2022-10-23T20:29:51.080Z,4.80
2022-10-23T20:32:20.077Z,2.90
2022-10-23T20:34:50.246Z,4.47
2022-10-23T20:37:19.199Z,2.23
2022-10-23T20:39:49.240Z,4.10
2022-10-23T20:42:16.134Z,4.60
2022-10-23T20:44:42.988Z,4.67
2022-10-23T20:47:13.096Z,3.23
2022-10-23T20:49:40.061Z,4.93
2022-10-23T20:52:09.001Z,3.90
2022-10-23T20:54:38.463Z,6.23
2022-10-23T20:57:05.319Z,4.33
2022-10-23T20:59:34.274Z,2.73
2022-10-23T21:02:01.372Z,4.00
2022-10-23T21:04:31.422Z,4.13
2022-10-23T21:07:12.946Z,2.53
2022-10-23T21:09:40.946Z,2.70
2022-10-23T21:12:21.147Z,4.00
2022-10-23T21:14:52.837Z,3.43
2022-10-23T21:17:22.869Z,2.63
2022-10-23T21:19:49.842Z,3.00
2022-10-23T21:22:17.039Z,2.93
2022-10-23T21:24:45.002Z,3.07
2022-10-23T21:27:15.169Z,4.90
2022-10-23T21:29:43.521Z,3.07
2022-10-23T21:32:10.417Z,8.60
2022-10-23T21:34:40.415Z,3.93
2022-10-23T21:37:13.578Z,2.60
2022-10-23T21:39:44.143Z,3.17
2022-10-23T21:42:14.235Z,1.50
2022-10-23T21:44:44.272Z,5.17
2022-10-23T21:47:12.207Z,0.97
2022-10-23T21:49:40.216Z,2.53
2022-10-23T21:52:10.115Z,1.50
2022-10-23T21:54:40.085Z,1.83
2022-10-23T21:57:14.383Z,2.43
2022-10-23T21:59:41.258Z,2.13
2022-10-23T22:02:11.523Z,3.17
2022-10-23T22:04:39.070Z,3.20
2022-10-23T22:07:06.782Z,2.73
2022-10-23T22:09:34.644Z,2.03
2022-10-23T22:12:02.046Z,3.33
2022-10-23T22:14:32.017Z,2.10
2022-10-23T22:17:05.972Z,2.00
2022-10-23T22:19:32.835Z,2.93
2022-10-23T22:22:00.750Z,2.17
2022-10-23T22:24:27.779Z,3.20
2022-10-23T22:26:56.444Z,4.00
2022-10-23T22:29:25.831Z,3.30
2022-10-23T22:31:58.806Z,2.10
2022-10-23T22:34:48.225Z,4.47
2022-10-23T22:37:16.152Z,2.27
2022-10-23T22:39:46.195Z,2.37
2022-10-23T22:42:13.123Z,3.30
2022-10-23T22:44:43.202Z,8.20
2022-10-23T22:47:13.164Z,3.13
2022-10-23T22:49:41.064Z,4.80
2022-10-23T22:52:08.119Z,2.13
2022-10-23T22:54:35.210Z,2.83
2022-10-23T22:57:05.156Z,1.90
2022-10-23T22:59:35.095Z,4.30
2022-10-23T23:02:03.486Z,2.10
2022-10-23T23:04:39.326Z,4.27
2022-10-23T23:07:11.003Z,3.40
2022-10-23T23:09:45.126Z,2.07
2022-10-23T23:12:15.224Z,2.97
2022-10-23T23:14:45.280Z,2.70
2022-10-23T23:17:15.296Z,4.33
2022-10-23T23:19:48.439Z,2.03
2022-10-23T23:22:15.478Z,3.70
2022-10-23T23:24:45.509Z,2.83
2022-10-23T23:27:13.537Z,3.53
2022-10-23T23:29:42.460Z,5.03
2022-10-23T23:32:12.507Z,5.90
2022-10-23T23:34:42.576Z,3.60
2022-10-23T23:37:12.480Z,4.10
2022-10-23T23:39:40.358Z,4.50
2022-10-23T23:42:07.363Z,5.00
2022-10-23T23:44:41.981Z,4.10
2022-10-23T23:47:20.583Z,2.83
2022-10-23T23:49:47.538Z,4.67
2022-10-23T23:52:15.548Z,3.53
2022-10-23T23:54:43.761Z,3.67
2022-10-23T23:57:13.803Z,4.23
2022-10-23T23:59:43.870Z,3.27
